createdAt,value
2022-10-10T00:00:37.201Z,99581.09
2022-10-10T00:05:39.977Z,99579.66
2022-10-10T00:10:42.223Z,99571.88
2022-10-10T00:15:48.934Z,99568.50
2022-10-10T00:20:52.058Z,99569.84
2022-10-10T00:25:55.931Z,99565.78
2022-10-10T00:30:58.124Z,99561.22
2022-10-10T00:36:04.925Z,99563.75
2022-10-10T00:47:32.099Z,99564.94
2022-10-10T00:52:34.433Z,99562.22
2022-10-10T01:04:12.962Z,99546.66
2022-10-10T01:09:15.271Z,99547.66
2022-10-10T01:14:36.819Z,99542.59
2022-10-10T01:19:57.260Z,99553.09
2022-10-10T01:25:14.488Z,99554.03
2022-10-10T01:30:19.986Z,99547.97
2022-10-10T01:36:00.574Z,99539.91
2022-10-10T01:41:17.471Z,99538.13
2022-10-10T01:46:19.740Z,99536.19
2022-10-10T01:51:23.737Z,99530.50
2022-10-10T01:56:32.394Z,99528.78
2022-10-10T02:01:37.434Z,99535.31
2022-10-10T02:06:44.636Z,99531.56
2022-10-10T02:11:47.902Z,99533.78
2022-10-10T02:16:52.028Z,99528.63
2022-10-10T02:21:55.973Z,99537.34
2022-10-10T02:27:08.609Z,99538.16
2022-10-10T02:32:24.450Z,99535.03
2022-10-10T02:37:32.063Z,99528.25
2022-10-10T02:48:56.536Z,99522.56
2022-10-10T02:54:02.136Z,99521.97
2022-10-10T02:59:09.761Z,99530.53
2022-10-10T03:10:41.765Z,99539.00
2022-10-10T03:15:44.943Z,99532.31
2022-10-10T03:21:00.102Z,99539.88
2022-10-10T03:26:02.770Z,99530.88
2022-10-10T03:31:05.125Z,99523.78
2022-10-10T03:36:09.420Z,99537.84
2022-10-10T03:41:12.463Z,99531.66
2022-10-10T03:46:18.508Z,99537.16
2022-10-10T03:51:20.885Z,99525.66
2022-10-10T03:56:30.113Z,99523.78
2022-10-10T04:01:32.839Z,99514.31
2022-10-10T04:06:37.968Z,99514.63
2022-10-10T04:12:12.347Z,99511.84
2022-10-10T04:17:16.576Z,99512.75
2022-10-10T04:22:18.857Z,99503.00
2022-10-10T04:27:30.154Z,99500.97
2022-10-10T04:32:43.810Z,99494.00
2022-10-10T04:37:46.964Z,99484.06
2022-10-10T04:42:49.528Z,99488.38
2022-10-10T04:47:54.053Z,99490.84
2022-10-10T04:52:57.486Z,99484.41
2022-10-10T04:57:59.966Z,99490.63
2022-10-10T05:03:02.960Z,99487.25
2022-10-10T05:08:05.278Z,99479.44
2022-10-10T05:13:10.311Z,99490.88
2022-10-10T05:18:16.670Z,99481.03
2022-10-10T05:23:18.929Z,99492.50
2022-10-10T05:28:21.987Z,99506.00
2022-10-10T05:33:29.283Z,99498.97
2022-10-10T05:38:33.716Z,99508.84
2022-10-10T05:43:37.179Z,99503.75
2022-10-10T05:48:42.031Z,99505.84
2022-10-10T05:53:45.354Z,99522.53
2022-10-10T05:58:49.627Z,99530.28
2022-10-10T06:03:56.207Z,99523.31
2022-10-10T06:08:59.655Z,99537.56
2022-10-10T06:14:02.055Z,99545.25
2022-10-10T06:19:04.413Z,99538.09
2022-10-10T06:24:07.086Z,99538.28
2022-10-10T06:29:09.527Z,99552.03
2022-10-10T06:34:11.829Z,99553.72
2022-10-10T06:39:15.440Z,99561.59
2022-10-10T06:44:21.823Z,99555.97
2022-10-10T06:49:24.124Z,99543.72
2022-10-10T06:54:26.462Z,99562.75
2022-10-10T06:59:28.678Z,99563.88
2022-10-10T07:04:34.300Z,99559.09
2022-10-10T07:09:39.762Z,99549.88
2022-10-10T07:14:42.106Z,99557.84
2022-10-10T07:19:44.564Z,99554.56
2022-10-10T07:24:47.821Z,99555.13
2022-10-10T07:29:50.185Z,99554.53
2022-10-10T07:34:53.691Z,99560.53
2022-10-10T07:39:56.102Z,99576.69
2022-10-10T07:44:58.382Z,99571.06
2022-10-10T07:50:00.716Z,99570.00
2022-10-10T07:55:03.661Z,99575.53
2022-10-10T08:00:07.110Z,99583.81
2022-10-10T08:05:15.982Z,99587.22
2022-10-10T08:10:20.795Z,99585.91
2022-10-10T08:15:23.103Z,99581.13
2022-10-10T08:20:25.413Z,99576.88
2022-10-10T08:25:27.922Z,99571.28
2022-10-10T08:31:02.015Z,99571.53
2022-10-10T08:36:12.534Z,99563.66
2022-10-10T08:41:53.463Z,99559.09
2022-10-10T08:53:19.389Z,99540.53
2022-10-10T08:58:31.050Z,99538.25
2022-10-10T09:03:43.607Z,99543.84
2022-10-10T09:08:55.584Z,99534.38
2022-10-10T09:14:13.272Z,99525.72
2022-10-10T09:19:24.318Z,99530.69
2022-10-10T09:24:37.839Z,99533.00
2022-10-10T09:29:57.061Z,99554.03
2022-10-10T09:35:06.126Z,99552.97
2022-10-10T09:40:24.954Z,99554.88
2022-10-10T09:45:33.014Z,99557.59
2022-10-10T09:50:37.353Z,99549.34
2022-10-10T09:55:44.905Z,99560.94
2022-10-10T10:00:47.400Z,99564.34
2022-10-10T10:05:55.934Z,99562.63
2022-10-10T10:11:02.750Z,99559.13
2022-10-10T10:16:07.573Z,99556.03
2022-10-10T10:21:09.920Z,99545.50
2022-10-10T10:26:15.065Z,99540.03
2022-10-10T10:31:31.805Z,99536.03
2022-10-10T10:36:48.837Z,99526.44
2022-10-10T10:42:03.836Z,99521.94
2022-10-10T10:47:08.959Z,99517.69
2022-10-10T10:52:27.977Z,99509.16
2022-10-10T10:57:59.435Z,99514.53
2022-10-10T11:05:17.736Z,99506.72
2022-10-10T11:08:54.545Z,99506.63
2022-10-10T11:13:57.445Z,99505.97
2022-10-10T11:18:59.682Z,99501.47
2022-10-10T11:24:24.936Z,99499.56
2022-10-10T11:29:35.561Z,99498.38
2022-10-10T11:34:44.090Z,99493.31
2022-10-10T11:39:57.201Z,99489.38
2022-10-10T11:45:02.719Z,99481.06
2022-10-10T11:50:21.654Z,99471.00
2022-10-10T11:55:52.120Z,99479.69
2022-10-10T12:01:06.258Z,99475.34
2022-10-10T12:06:19.179Z,99477.28
2022-10-10T12:11:40.552Z,99465.28
2022-10-10T12:16:43.967Z,99473.91
2022-10-10T12:22:03.376Z,99470.56
2022-10-10T12:27:06.296Z,99458.31
2022-10-10T12:32:19.011Z,99461.16
2022-10-10T12:37:27.842Z,99459.25
2022-10-10T12:42:42.223Z,99452.38
2022-10-10T12:48:04.460Z,99456.84
2022-10-10T12:53:14.603Z,99442.19
2022-10-10T12:58:29.103Z,99442.19
2022-10-10T13:03:47.423Z,99443.41
2022-10-10T13:08:50.907Z,99430.44
2022-10-10T13:13:57.466Z,99440.03
2022-10-10T13:19:00.274Z,99425.28
2022-10-10T13:24:05.482Z,99422.03
2022-10-10T13:29:19.817Z,99417.22
2022-10-10T13:34:27.135Z,99429.13
2022-10-10T13:39:31.101Z,99426.91
2022-10-10T13:44:50.909Z,99427.50
2022-10-10T13:50:05.725Z,99424.66
2022-10-10T13:55:15.635Z,99427.41
2022-10-10T14:00:22.315Z,99422.03
2022-10-10T14:05:28.247Z,99416.78
2022-10-10T14:10:36.059Z,99417.34
2022-10-10T14:15:41.366Z,99411.28
2022-10-10T14:20:44.875Z,99416.09
2022-10-10T14:25:52.803Z,99422.47
2022-10-10T14:31:51.517Z,99420.94
2022-10-10T14:36:53.844Z,99427.28
2022-10-10T14:41:56.098Z,99424.53
2022-10-10T14:47:02.740Z,99425.69
2022-10-10T14:52:05.126Z,99437.25
2022-10-10T14:57:10.106Z,99436.41
2022-10-10T15:02:14.065Z,99427.59
2022-10-10T15:07:16.623Z,99433.09
2022-10-10T15:12:18.953Z,99437.06
2022-10-10T15:17:21.551Z,99435.00
2022-10-10T15:22:25.211Z,99436.38
2022-10-10T15:27:31.567Z,99437.78
2022-10-10T15:32:37.690Z,99437.56
2022-10-10T15:37:39.957Z,99447.63
2022-10-10T15:42:51.266Z,99446.47
2022-10-10T15:47:54.616Z,99454.91
2022-10-10T15:52:57.359Z,99443.56
2022-10-10T15:58:00.488Z,99441.50
2022-10-10T16:03:02.740Z,99433.75
2022-10-10T16:08:06.592Z,99437.56
2022-10-10T16:13:11.372Z,99441.25
2022-10-10T16:18:16.551Z,99427.53
2022-10-10T16:23:21.638Z,99447.13
2022-10-10T16:28:38.438Z,99445.44
2022-10-10T16:33:41.894Z,99452.91
2022-10-10T16:38:47.216Z,99448.41
2022-10-10T16:43:50.214Z,99445.41
2022-10-10T16:48:53.096Z,99444.81
2022-10-10T16:53:58.047Z,99443.09
2022-10-10T16:59:01.127Z,99441.84
2022-10-10T17:04:04.515Z,99443.84
2022-10-10T17:09:30.441Z,99452.38
2022-10-10T17:14:34.883Z,99457.81
2022-10-10T17:19:48.552Z,99459.06
2022-10-10T17:24:51.685Z,99480.63
2022-10-10T17:29:56.972Z,99472.47
2022-10-10T17:35:05.195Z,99472.00
2022-10-10T17:40:10.345Z,99464.72
2022-10-10T17:45:13.538Z,99475.69
2022-10-10T17:50:25.890Z,99481.03
2022-10-10T17:55:28.905Z,99475.06
2022-10-10T18:00:33.101Z,99473.78
2022-10-10T18:05:42.685Z,99479.63
2022-10-10T18:10:52.564Z,99480.56
2022-10-10T18:16:07.235Z,99474.56
2022-10-10T18:21:10.940Z,99475.13
2022-10-10T18:26:15.409Z,99488.84
2022-10-10T18:31:21.865Z,99487.53
2022-10-10T18:36:25.013Z,99482.47
2022-10-10T18:41:34.554Z,99491.88
2022-10-10T18:46:41.380Z,99493.56
2022-10-10T18:51:48.961Z,99491.59
2022-10-10T18:56:51.286Z,99495.63
2022-10-10T19:02:11.810Z,99498.63
2022-10-10T19:07:17.730Z,99493.00
2022-10-10T19:12:22.486Z,99489.53
2022-10-10T19:17:24.745Z,99500.41
2022-10-10T19:22:27.467Z,99497.41
2022-10-10T19:27:36.005Z,99501.81
2022-10-10T19:32:38.280Z,99506.69
2022-10-10T19:37:40.594Z,99492.03
2022-10-10T19:48:00.775Z,99498.06
2022-10-10T19:53:08.258Z,99498.25
2022-10-10T19:58:19.763Z,99504.97
2022-10-10T20:03:31.302Z,99500.84
2022-10-10T20:08:37.669Z,99510.97
2022-10-10T20:13:42.155Z,99516.97
2022-10-10T20:18:45.107Z,99512.19
2022-10-10T20:23:52.308Z,99523.53
2022-10-10T20:28:55.082Z,99526.16
2022-10-10T20:33:58.869Z,99530.66
2022-10-10T20:39:03.168Z,99538.16
2022-10-10T20:44:06.577Z,99539.88
2022-10-10T20:49:12.236Z,99554.22
2022-10-10T20:54:17.933Z,99549.50
2022-10-10T20:59:22.463Z,99554.00
2022-10-10T21:04:24.734Z,99553.91
2022-10-10T21:09:27.926Z,99562.75
2022-10-10T21:14:33.173Z,99558.34
2022-10-10T21:19:35.986Z,99560.06
2022-10-10T21:24:38.381Z,99564.75
2022-10-10T21:29:40.703Z,99553.84
2022-10-10T21:34:43.169Z,99552.25
2022-10-10T21:39:45.978Z,99551.94
2022-10-10T21:44:48.281Z,99549.66
2022-10-10T21:49:50.596Z,99540.47
2022-10-10T21:54:55.618Z,99545.28
2022-10-10T22:00:07.241Z,99541.91
2022-10-10T22:05:15.120Z,99529.50
2022-10-10T22:10:19.778Z,99532.25
2022-10-10T22:15:24.245Z,99527.72
2022-10-10T22:20:26.757Z,99531.44
2022-10-10T22:25:28.985Z,99529.88
2022-10-10T22:30:31.260Z,99538.69
2022-10-10T22:35:34.265Z,99540.13
2022-10-10T22:40:38.615Z,99530.75
2022-10-10T22:45:41.567Z,99542.91
2022-10-10T22:50:44.535Z,99526.50
2022-10-10T22:55:46.819Z,99522.56
2022-10-10T23:00:52.120Z,99519.41
2022-10-10T23:05:55.566Z,99524.63
2022-10-10T23:11:01.823Z,99516.13
2022-10-10T23:16:04.529Z,99522.97
2022-10-10T23:21:07.565Z,99522.63
2022-10-10T23:26:11.139Z,99522.28
2022-10-10T23:31:14.514Z,99526.94
2022-10-10T23:41:33.570Z,99517.22
2022-10-10T23:46:36.891Z,99524.91
2022-10-10T23:51:40.110Z,99522.78
2022-10-10T23:56:42.380Z,99524.66
